Time;durP1;ratioP1;P1;durP2;ratioP2;P2;SDS_P1;SDS_P2;PMS_P1;PMS_P2;Temp;Humidity;BMP_temperature;BMP_pressure;BME280_temperature;BME280_humidity;BME280_pressure;Samples;Min_cycle;Max_cycle;Signal;HPM_P1;HPM_P2
2023/10/13 00:01:23;;;;;;;0.10;0.10;;;;;;;16.82;67.29;99707.75;7355646;19;20019;-60
2023/10/13 00:03:52;;;;;;;0.10;0.10;;;;;;;16.83;67.56;99714.72;7356598;19;20031;-60
2023/10/13 00:06:18;;;;;;;0.10;0.10;;;;;;;16.84;67.24;99705.03;7360354;19;20011;-60
2023/10/13 00:08:44;;;;;;;0.10;0.10;;;;;;;16.82;67.68;99710.38;7361644;19;20016;-60
2023/10/13 00:11:13;;;;;;;0.00;0.00;;;;;;;16.79;67.28;99694.78;7359718;19;20002;-61
2023/10/13 00:13:43;;;;;;;0.10;0.10;;;;;;;16.81;67.40;99699.94;7358862;19;20026;-60
2023/10/13 00:16:17;;;;;;;0.03;0.03;;;;;;;16.81;67.26;99700.78;7355134;19;20628;-61
2023/10/13 00:18:43;;;;;;;0.10;0.10;;;;;;;16.80;67.22;99687.72;7355800;19;20473;-60
2023/10/13 00:21:13;;;;;;;0.10;0.10;;;;;;;16.79;67.40;99686.88;7358926;19;20018;-60
2023/10/13 00:23:43;;;;;;;0.00;0.00;;;;;;;16.79;67.47;99681.59;7352920;19;20006;-60
2023/10/13 00:26:09;;;;;;;0.00;0.00;;;;;;;16.79;67.14;99675.47;7359688;19;20006;-60
2023/10/13 00:28:46;;;;;;;0.10;0.10;;;;;;;16.78;67.65;99674.63;7325896;19;20015;-60
2023/10/13 00:31:13;;;;;;;0.08;0.08;;;;;;;16.77;67.74;99677.34;7366611;19;20002;-61
2023/10/13 00:33:44;;;;;;;0.10;0.10;;;;;;;16.73;67.69;99666.19;7364534;19;20423;-60
2023/10/13 00:36:17;;;;;;;0.10;0.10;;;;;;;16.76;67.55;99676.50;7360737;19;20868;-60
2023/10/13 00:38:42;;;;;;;0.10;0.10;;;;;;;16.75;67.53;99664.28;7358606;19;20014;-60
2023/10/13 00:41:15;;;;;;;0.10;0.10;;;;;;;16.75;67.70;99658.16;7354077;19;20448;-61
2023/10/13 00:46:37;;;;;;;0.03;0.03;;;;;;;16.75;67.24;99651.09;7360526;19;20108;-61
2023/10/13 00:49:08;;;;;;;0.10;0.10;;;;;;;16.69;67.56;99632.16;7358507;19;20030;-61
2023/10/13 00:51:40;;;;;;;0.00;0.00;;;;;;;16.71;67.66;99625.88;7358564;19;20018;-61
2023/10/13 00:54:11;;;;;;;0.10;0.10;;;;;;;16.70;67.73;99618.88;7367927;19;20022;-60
2023/10/13 00:56:46;;;;;;;0.00;0.00;;;;;;;16.71;67.95;99615.31;7364858;19;20034;-60
2023/10/13 00:59:14;;;;;;;0.03;0.03;;;;;;;16.69;67.93;99606.66;7366131;19;20010;-60
2023/10/13 01:01:42;;;;;;;0.10;0.10;;;;;;;16.67;67.65;99597.97;7362834;19;20006;-61
2023/10/13 01:04:11;;;;;;;0.10;0.10;;;;;;;16.65;68.03;99594.59;7354843;19;20011;-60
2023/10/13 01:06:37;;;;;;;0.10;0.10;;;;;;;16.67;67.98;99590.06;7360364;19;20018;-61
2023/10/13 01:09:16;;;;;;;0.10;0.10;;;;;;;16.69;67.73;99590.81;7358840;19;20018;-60
2023/10/13 01:11:48;;;;;;;0.08;0.08;;;;;;;16.68;67.76;99577.75;7362931;19;20013;-61
2023/10/13 01:14:17;;;;;;;0.10;0.10;;;;;;;16.65;67.78;99584.06;7364075;19;20037;-61
2023/10/13 01:16:45;;;;;;;0.10;0.10;;;;;;;16.57;67.65;99570.53;7352555;19;20094;-60
2023/10/13 01:19:14;;;;;;;0.10;0.10;;;;;;;16.64;67.83;99571.84;7366580;19;20010;-60
2023/10/13 01:21:47;;;;;;;0.08;0.08;;;;;;;16.64;68.12;99561.28;7369596;19;20007;-60
2023/10/13 01:24:13;;;;;;;0.10;0.10;;;;;;;16.61;67.75;99556.22;7367646;19;20963;-60
2023/10/13 01:26:39;;;;;;;0.10;0.10;;;;;;;16.63;67.81;99558.75;7361233;19;19999;-61
2023/10/13 01:29:12;;;;;;;0.10;0.10;;;;;;;16.63;67.68;99551.69;7361952;19;20526;-61
2023/10/13 01:31:45;;;;;;;0.10;0.10;;;;;;;16.62;68.00;99542.06;7363651;19;20018;-60
2023/10/13 01:34:21;;;;;;;0.10;0.10;;;;;;;16.61;67.85;99538.59;7363003;19;20016;-61
2023/10/13 01:36:55;;;;;;;0.10;0.10;;;;;;;16.63;67.86;99538.53;7358391;19;20035;-60
2023/10/13 01:39:26;;;;;;;0.00;0.00;;;;;;;16.61;67.86;99540.41;7367261;19;20010;-60
2023/10/13 01:41:55;;;;;;;0.03;0.03;;;;;;;16.59;68.25;99537.88;7364370;19;20488;-60
2023/10/13 01:44:32;;;;;;;0.10;0.10;;;;;;;16.62;67.89;99536.81;7368270;19;20588;-60
2023/10/13 01:47:07;;;;;;;0.10;0.10;;;;;;;16.58;67.85;99530.91;7371292;19;20050;-61
2023/10/13 01:49:42;;;;;;;0.10;0.10;;;;;;;16.59;68.40;99529.13;7367130;19;20014;-60
2023/10/13 01:52:11;;;;;;;0.10;0.10;;;;;;;16.56;68.06;99518.78;7366974;19;20664;-60
2023/10/13 01:54:40;;;;;;;0.10;0.10;;;;;;;16.57;68.45;99515.19;7371731;19;20006;-60
2023/10/13 01:57:06;;;;;;;0.10;0.10;;;;;;;16.56;67.98;99502.97;7367181;19;20515;-61
2023/10/13 01:59:32;;;;;;;0.00;0.00;;;;;;;16.55;68.50;99493.38;7359145;19;20022;-60
2023/10/13 02:02:00;;;;;;;0.00;0.00;;;;;;;16.54;68.50;99489.88;7365758;19;20027;-60
2023/10/13 02:04:27;;;;;;;0.10;0.10;;;;;;;16.53;68.19;99484.72;7364784;19;20010;-60
2023/10/13 02:06:52;;;;;;;0.00;0.00;;;;;;;16.45;68.32;99469.41;7363156;19;20006;-61
2023/10/13 02:09:25;;;;;;;0.10;0.10;;;;;;;16.52;68.37;99483.00;7368437;19;20031;-61
2023/10/13 02:11:54;;;;;;;0.10;0.10;;;;;;;16.51;68.52;99471.63;7366339;19;20656;-60
2023/10/13 02:14:22;;;;;;;0.00;0.00;;;;;;;16.46;68.38;99457.09;7358979;19;20053;-60
2023/10/13 02:16:50;;;;;;;0.00;0.00;;;;;;;16.50;68.54;99461.22;7371587;19;20020;-60
2023/10/13 02:19:19;;;;;;;0.10;0.10;;;;;;;16.43;68.57;99441.50;7366126;19;20002;-60
2023/10/13 02:21:45;;;;;;;0.10;0.10;;;;;;;16.38;68.58;99438.31;7360327;19;20364;-61
2023/10/13 02:24:17;;;;;;;0.10;0.10;;;;;;;16.46;68.38;99452.66;7362654;19;20017;-60
2023/10/13 02:26:43;;;;;;;0.00;0.00;;;;;;;16.34;68.79;99427.13;7366450;19;20014;-60
2023/10/13 02:29:12;;;;;;;0.08;0.08;;;;;;;16.41;68.47;99432.84;7363077;19;20018;-61
2023/10/13 02:31:39;;;;;;;0.10;0.10;;;;;;;16.45;68.72;99431.69;7365286;19;20048;-60
2023/10/13 02:34:08;;;;;;;0.10;0.10;;;;;;;16.31;68.81;99407.09;7365673;19;20021;-61
2023/10/13 02:36:54;;;;;;;0.10;0.10;;;;;;;16.44;68.89;99432.63;7361069;19;21155;-60
2023/10/13 02:39:32;;;;;;;0.10;0.10;;;;;;;16.43;68.95;99423.06;7362803;19;20006;-61
2023/10/13 02:41:58;;;;;;;0.10;0.10;;;;;;;16.39;69.05;99406.59;7358385;19;20018;-61
2023/10/13 02:44:27;;;;;;;0.00;0.00;;;;;;;16.41;69.07;99398.56;7359336;19;20022;-61
2023/10/13 02:46:55;;;;;;;0.00;0.00;;;;;;;16.38;68.94;99388.25;7364861;19;20011;-60
2023/10/13 02:49:22;;;;;;;0.05;0.05;;;;;;;16.36;69.02;99390.97;7363950;19;20348;-60
2023/10/13 02:51:47;;;;;;;0.10;0.10;;;;;;;16.31;68.80;99379.91;7365743;19;20006;-60
2023/10/13 02:54:18;;;;;;;0.00;0.00;;;;;;;16.35;69.01;99376.97;7362533;19;20042;-60
2023/10/13 02:56:50;;;;;;;0.10;0.10;;;;;;;16.33;69.05;99378.03;7366095;19;20101;-60
2023/10/13 02:59:19;;;;;;;0.10;0.10;;;;;;;16.32;69.13;99382.47;7363726;19;20056;-60
2023/10/13 03:01:44;;;;;;;0.00;0.00;;;;;;;16.30;69.36;99368.53;7368096;19;20484;-60
2023/10/13 03:04:12;;;;;;;0.10;0.10;;;;;;;16.15;69.45;99331.84;7364387;19;20011;-60
2023/10/13 03:06:40;;;;;;;0.00;0.00;;;;;;;16.27;69.17;99358.22;7365444;19;20015;-60
2023/10/13 03:09:18;;;;;;;;;;;;;;;16.31;68.03;99354.41;7364850;19;20044;-61
2023/10/13 03:11:48;;;;;;;0.00;0.00;;;;;;;16.27;68.95;99347.69;7363263;19;19928;-60
2023/10/13 03:14:26;;;;;;;0.10;0.10;;;;;;;16.27;68.90;99354.72;7362520;19;20022;-60
2023/10/13 03:16:54;;;;;;;0.05;0.05;;;;;;;16.20;69.68;99351.66;7334846;19;20082;-60
2023/10/13 03:19:19;;;;;;;0.10;0.10;;;;;;;16.18;69.73;99358.00;7362347;19;20015;-60
2023/10/13 03:21:54;;;;;;;0.10;0.10;;;;;;;16.15;69.63;99358.19;7360864;19;20038;-60
2023/10/13 03:24:22;;;;;;;0.00;0.00;;;;;;;16.11;70.03;99354.91;7366633;19;20090;-61
2023/10/13 03:26:52;;;;;;;0.10;0.10;;;;;;;16.09;70.18;99351.53;7364927;19;20018;-60
2023/10/13 03:29:21;;;;;;;0.10;0.10;;;;;;;16.06;69.94;99346.47;7366706;19;20021;-60
2023/10/13 03:31:55;;;;;;;0.00;0.00;;;;;;;16.02;70.26;99342.38;7364593;19;20078;-60
2023/10/13 03:34:20;;;;;;;0.00;0.00;;;;;;;15.99;69.88;99334.69;7357919;19;20014;-60
2023/10/13 03:36:58;;;;;;;0.00;0.00;;;;;;;15.97;70.02;99337.41;7361214;19;20022;-60
2023/10/13 03:39:28;;;;;;;;;;;;;;;16.00;68.63;99339.00;7361465;19;20018;-61
2023/10/13 03:41:54;;;;;;;0.00;0.00;;;;;;;15.94;69.71;99329.72;7367157;19;19918;-60
2023/10/13 03:44:20;;;;;;;0.10;0.10;;;;;;;15.88;70.12;99318.75;7366716;19;20010;-60
2023/10/13 03:46:47;;;;;;;0.10;0.10;;;;;;;15.89;70.24;99333.59;7373036;19;20038;-60
2023/10/13 03:49:21;;;;;;;0.00;0.00;;;;;;;15.87;70.01;99324.97;7370289;19;20070;-60
2023/10/13 03:51:47;;;;;;;0.10;0.10;;;;;;;15.86;70.29;99320.63;7366308;19;20788;-60
2023/10/13 03:54:16;;;;;;;0.10;0.10;;;;;;;15.72;70.79;99298.72;7363479;19;20771;-60
2023/10/13 03:56:44;;;;;;;0.10;0.10;;;;;;;15.81;70.87;99323.56;7364635;19;20015;-60
2023/10/13 03:59:17;;;;;;;0.00;0.00;;;;;;;15.78;70.41;99319.38;7357245;19;20006;-60
2023/10/13 04:01:47;;;;;;;0.10;0.10;;;;;;;15.76;70.86;99315.13;7363467;19;20011;-60
2023/10/13 04:04:43;;;;;;;0.00;0.00;;;;;;;15.73;70.70;99310.94;7345428;19;20106;-60
2023/10/13 04:14:21;;;;;;;0.00;0.00;;;;;;;15.57;70.42;99300.53;7365796;19;20797;-61
2023/10/13 04:15:18;;;;;;;0.10;0.10;;;;;;;15.56;70.88;99297.97;7362281;19;20364;-60
2023/10/13 04:17:48;;;;;;;0.00;0.00;;;;;;;15.52;70.75;99291.25;7355732;19;20022;-60
2023/10/13 04:20:26;;;;;;;0.10;0.10;;;;;;;15.47;70.78;99277.56;7368832;19;20014;-60
2023/10/13 04:36:14;;;;;;;0.00;0.00;;;;;;;15.28;70.96;99286.63;7356182;19;20022;-60
2023/10/13 04:41:32;;;;;;;0.10;0.10;;;;;;;15.25;71.41;99289.47;7360563;19;20034;-60
2023/10/13 04:44:47;;;;;;;0.10;0.10;;;;;;;15.25;71.65;99304.41;7362446;19;20019;-60
2023/10/13 05:05:44;;;;;;;0.05;0.05;;;;;;;15.08;71.96;99300.22;7371234;19;20011;-60
2023/10/13 06:29:54;;;;;;;0.00;0.00;;;;;;;14.08;72.23;99263.47;7365411;19;20050;-60
2023/10/13 06:32:26;;;;;;;0.00;0.00;;;;;;;14.14;72.22;99263.13;7364926;19;20003;-60
2023/10/13 06:34:58;;;;;;;0.10;0.10;;;;;;;14.13;72.63;99240.41;7370813;19;20014;-60
2023/10/13 06:37:41;;;;;;;0.00;0.00;;;;;;;14.12;72.42;99238.72;7359809;19;20007;-60
2023/10/13 06:40:32;;;;;;;0.00;0.00;;;;;;;13.92;72.30;99194.47;7357967;19;20006;-60
2023/10/13 06:43:11;;;;;;;0.10;0.10;;;;;;;14.07;72.83;99224.19;7360103;19;20014;-60
2023/10/13 06:45:37;;;;;;;0.00;0.00;;;;;;;14.04;72.64;99225.25;7363940;19;20728;-60
2023/10/13 06:48:04;;;;;;;0.08;0.08;;;;;;;14.02;72.68;99229.72;7369295;19;20019;-60
2023/10/13 06:50:33;;;;;;;;;;;;;;;14.03;71.01;99249.78;7362158;19;20026;-60
2023/10/13 06:53:01;;;;;;;0.03;0.03;;;;;;;13.98;72.41;99251.81;7359976;19;19919;-61
2023/10/13 06:55:27;;;;;;;0.08;0.08;;;;;;;13.96;72.57;99264.22;7363236;19;20014;-60
2023/10/13 06:57:59;;;;;;;0.00;0.00;;;;;;;13.92;72.21;99257.44;7343891;19;20014;-60
2023/10/13 07:00:40;;;;;;;0.08;0.08;;;;;;;13.80;72.34;99250.31;7364076;19;20467;-60
2023/10/13 07:03:06;;;;;;;0.10;0.10;;;;;;;13.87;72.55;99275.25;7363911;19;20466;-60
2023/10/13 07:05:50;;;;;;;0.10;0.10;;;;;;;13.89;71.96;99295.22;7372037;19;20014;-60
2023/10/13 07:08:23;;;;;;;0.10;0.10;;;;;;;13.86;72.38;99310.28;7366231;19;20025;-60
2023/10/13 07:11:02;;;;;;;0.10;0.10;;;;;;;13.87;72.07;99312.81;7357271;19;20018;-60
2023/10/13 07:13:28;;;;;;;0.00;0.00;;;;;;;13.86;72.26;99326.03;7363088;19;20026;-60
2023/10/13 07:15:59;;;;;;;0.05;0.05;;;;;;;13.85;71.96;99326.97;7362609;19;20010;-60
2023/10/13 07:18:25;;;;;;;0.00;0.00;;;;;;;13.86;71.98;99336.53;7365614;19;20024;-60
2023/10/13 07:20:52;;;;;;;0.00;0.00;;;;;;;13.81;71.87;99328.09;7371249;19;20569;-60
2023/10/13 07:23:17;;;;;;;0.10;0.10;;;;;;;13.85;71.94;99334.84;7360621;19;20021;-60
2023/10/13 07:25:51;;;;;;;0.00;0.00;;;;;;;13.87;71.66;99346.94;7359235;19;20437;-60
2023/10/13 07:28:17;;;;;;;0.00;0.00;;;;;;;13.86;71.70;99354.91;7362977;19;20015;-60
2023/10/13 07:33:21;;;;;;;0.10;0.10;;;;;;;13.85;71.27;99361.94;7362187;19;20018;-60
2023/10/13 07:35:51;;;;;;;0.03;0.03;;;;;;;13.87;71.25;99370.56;7354775;19;20925;-59
2023/10/13 07:38:21;;;;;;;0.03;0.03;;;;;;;13.88;71.50;99372.25;7353642;19;20047;-62
2023/10/13 07:40:51;;;;;;;0.08;0.08;;;;;;;13.63;71.17;99341.31;7361312;19;20529;-61
2023/10/13 07:43:21;;;;;;;0.00;0.00;;;;;;;13.91;71.25;99387.81;7350014;19;20026;-61
2023/10/13 07:45:51;;;;;;;0.10;0.10;;;;;;;13.95;70.61;99393.75;7341401;19;20011;-62
2023/10/13 07:48:20;;;;;;;0.10;0.10;;;;;;;13.94;70.81;99381.56;7347930;19;21117;-62
2023/10/13 07:51:10;;;;;;;0.03;0.03;;;;;;;13.97;70.97;99376.13;7364202;19;20003;-61
2023/10/13 07:53:40;;;;;;;0.10;0.10;;;;;;;13.94;70.41;99371.91;7362043;19;20422;-61
2023/10/13 07:56:07;;;;;;;0.00;0.00;;;;;;;14.08;70.41;99396.50;7327064;19;20027;-61
2023/10/13 07:58:33;;;;;;;0.10;0.10;;;;;;;13.98;70.19;99372.56;7364634;19;20010;-62
2023/10/13 08:03:44;;;;;;;0.10;0.10;;;;;;;14.17;70.17;99403.84;7364326;19;20010;-61
2023/10/13 08:08:39;;;;;;;0.10;0.10;;;;;;;14.14;69.32;99404.88;7360719;19;20006;-61
2023/10/13 08:11:34;;;;;;;0.05;0.05;;;;;;;14.23;69.29;99416.59;7359747;19;20010;-60
2023/10/13 08:14:10;;;;;;;0.03;0.03;;;;;;;14.22;68.93;99425.44;7334319;19;20022;-59
2023/10/13 08:16:45;;;;;;;0.10;0.10;;;;;;;14.21;69.05;99432.47;7363030;19;20011;-61
2023/10/13 08:19:18;;;;;;;0.00;0.00;;;;;;;14.14;69.42;99412.75;7360564;19;20034;-60
2023/10/13 08:21:51;;;;;;;0.00;0.00;;;;;;;14.16;69.46;99426.63;7354510;19;20018;-59
2023/10/13 08:30:26;;;;;;;0.10;0.10;;;;;;;14.28;69.17;99444.28;7357288;19;20006;-59
2023/10/13 08:53:45;;;;;;;0.10;0.10;;;;;;;14.57;69.02;99436.53;7360612;19;20044;-59
2023/10/13 08:56:14;;;;;;;0.10;0.10;;;;;;;14.57;68.97;99436.53;7357142;19;20006;-60
2023/10/13 09:07:39;;;;;;;0.10;0.10;;;;;;;14.70;68.83;99445.38;7354438;19;20479;-60
2023/10/13 09:12:35;;;;;;;0.10;0.10;;;;;;;14.76;68.38;99454.69;7346081;19;19995;-59
2023/10/13 09:18:15;;;;;;;0.10;0.10;;;;;;;14.83;67.99;99449.88;7355069;19;20089;-59
2023/10/13 09:23:45;;;;;;;0.10;0.10;;;;;;;14.81;68.07;99446.53;7361201;19;20861;-59
2023/10/13 09:26:12;;;;;;;0.00;0.00;;;;;;;14.87;67.63;99446.13;7362577;19;20407;-58
2023/10/13 09:28:37;;;;;;;0.10;0.10;;;;;;;14.86;67.92;99440.03;7363585;19;20026;-59
2023/10/13 09:31:07;;;;;;;0.00;0.00;;;;;;;14.81;68.07;99436.00;7354493;19;20014;-58
2023/10/13 09:33:35;;;;;;;0.10;0.10;;;;;;;15.03;67.88;99457.41;7357086;19;20170;-59
2023/10/13 09:36:04;;;;;;;0.10;0.10;;;;;;;15.20;68.16;99454.59;7362301;19;20010;-58
2023/10/13 09:38:33;;;;;;;0.10;0.10;;;;;;;15.45;68.10;99463.59;7363211;19;20017;-59
2023/10/13 09:41:17;;;;;;;0.10;0.10;;;;;;;15.65;68.05;99463.22;7346282;19;20010;-60
2023/10/13 09:43:43;;;;;;;0.10;0.10;;;;;;;15.94;67.39;99465.78;7366261;19;20446;-59
2023/10/13 09:46:19;;;;;;;0.10;0.10;;;;;;;16.20;67.27;99472.81;7364283;19;20010;-59
2023/10/13 09:48:46;;;;;;;0.00;0.00;;;;;;;16.49;67.07;99484.09;7338610;19;20436;-59
2023/10/13 09:51:12;;;;;;;;;;;;;;;16.83;68.72;99485.34;7367550;19;20014;-59
2023/10/13 09:53:41;;;;;;;0.10;0.10;;;;;;;17.05;66.12;99475.94;7367985;19;19936;-60
2023/10/13 09:56:23;;;;;;;0.00;0.00;;;;;;;17.36;66.48;99475.50;7361975;19;20098;-59
2023/10/13 09:59:10;;;;;;;0.05;0.05;;;;;;;17.70;66.70;99481.03;7362055;19;20602;-60
2023/10/13 10:01:50;;;;;;;0.10;0.10;;;;;;;18.04;65.59;99473.31;7366508;19;20452;-60
2023/10/13 10:04:18;;;;;;;0.10;0.10;;;;;;;18.28;64.06;99474.16;7364362;19;20874;-59
2023/10/13 10:06:57;;;;;;;0.10;0.10;;;;;;;18.62;65.56;99493.66;7368558;19;20046;-59
2023/10/13 10:09:37;;;;;;;0.10;0.10;;;;;;;18.78;63.29;99490.72;7360363;19;20018;-60
2023/10/13 10:12:21;;;;;;;0.08;0.08;;;;;;;18.85;61.44;99494.56;7359406;19;20368;-59
2023/10/13 10:15:28;;;;;;;0.10;0.10;;;;;;;19.03;62.96;99496.78;7363446;19;20357;-60
2023/10/13 10:17:54;;;;;;;0.10;0.10;;;;;;;18.95;60.10;99507.09;7361976;19;20059;-60
2023/10/13 10:20:41;;;;;;;0.10;0.10;;;;;;;19.01;61.09;99504.84;7357386;19;20417;-60
2023/10/13 10:23:21;;;;;;;0.10;0.10;;;;;;;18.89;59.43;99506.59;7365710;19;20478;-59
2023/10/13 10:25:47;;;;;;;0.10;0.10;;;;;;;18.88;60.10;99514.66;7368545;19;20039;-59
2023/10/13 10:28:15;;;;;;;0.10;0.10;;;;;;;18.95;61.03;99513.22;7366014;19;20601;-59
2023/10/13 10:30:42;;;;;;;0.10;0.10;;;;;;;19.13;60.26;99519.78;7366001;19;20551;-59
2023/10/13 10:33:12;;;;;;;0.10;0.10;;;;;;;19.40;59.72;99524.72;7361595;19;20023;-60
2023/10/13 10:35:58;;;;;;;0.10;0.10;;;;;;;19.83;61.11;99523.19;7359026;19;20555;-59
2023/10/13 10:38:24;;;;;;;0.10;0.10;;;;;;;20.06;58.33;99526.63;7362552;19;20014;-60
2023/10/13 10:40:58;;;;;;;0.10;0.10;;;;;;;20.40;59.36;99517.59;7367043;19;20014;-59
2023/10/13 10:43:42;;;;;;;0.10;0.10;;;;;;;20.67;58.29;99532.22;7371184;19;20018;-59
2023/10/13 10:46:26;;;;;;;0.10;0.10;;;;;;;21.03;60.14;99524.81;7357618;19;20025;-59
2023/10/13 10:49:00;;;;;;;0.10;0.10;;;;;;;21.09;54.67;99519.00;7365316;19;20374;-59
2023/10/13 10:51:33;;;;;;;0.10;0.10;;;;;;;21.26;55.37;99526.34;7363027;19;20003;-59
2023/10/13 10:54:11;;;;;;;0.10;0.10;;;;;;;21.48;55.33;99526.19;7362030;19;20010;-59
2023/10/13 10:56:37;;;;;;;0.10;0.10;;;;;;;21.54;52.76;99529.28;7365574;19;20055;-59
2023/10/13 10:59:04;;;;;;;0.08;0.08;;;;;;;21.59;52.04;99535.03;7362012;19;20463;-59
2023/10/13 11:01:38;;;;;;;0.10;0.10;;;;;;;21.53;52.57;99535.59;7362793;19;20016;-60
2023/10/13 11:04:09;;;;;;;0.10;0.10;;;;;;;21.48;53.29;99531.50;7368335;19;20044;-59
2023/10/13 11:06:41;;;;;;;0.10;0.10;;;;;;;21.49;53.40;99532.34;7370311;19;20814;-59
2023/10/13 11:11:53;;;;;;;0.08;0.08;;;;;;;21.91;53.06;99526.94;7365269;19;20039;-59
2023/10/13 11:14:22;;;;;;;0.10;0.10;;;;;;;22.27;53.17;99533.47;7359482;19;20022;-59
2023/10/13 11:16:50;;;;;;;0.10;0.10;;;;;;;22.51;51.95;99525.94;7359027;19;20002;-59
2023/10/13 11:19:20;;;;;;;0.10;0.10;;;;;;;22.77;50.19;99510.22;7361542;19;20014;-60
2023/10/13 11:21:49;;;;;;;0.10;0.10;;;;;;;23.25;51.89;99535.09;7356077;19;20010;-60
2023/10/13 11:24:17;;;;;;;0.10;0.10;;;;;;;23.50;49.96;99539.78;7364085;19;20106;-59
2023/10/13 11:26:49;;;;;;;0.10;0.10;;;;;;;23.84;48.97;99536.59;7355475;19;20011;-60
2023/10/13 11:29:19;;;;;;;0.10;0.10;;;;;;;24.27;50.50;99548.41;7362940;19;20483;-60
2023/10/13 11:31:47;;;;;;;0.00;0.00;;;;;;;24.49;48.17;99548.00;7363605;19;20012;-60
2023/10/13 11:34:16;;;;;;;0.10;0.10;;;;;;;24.70;47.33;99550.38;7361039;19;20010;-59
2023/10/13 11:36:42;;;;;;;0.10;0.10;;;;;;;24.93;47.42;99549.88;7362139;19;20367;-59
2023/10/13 11:39:08;;;;;;;0.10;0.10;;;;;;;25.08;46.60;99553.69;7364348;19;20018;-59
2023/10/13 11:41:34;;;;;;;0.10;0.10;;;;;;;25.11;46.04;99558.75;7355402;19;20030;-59
2023/10/13 11:51:45;;;;;;;0.10;0.10;;;;;;;24.76;46.81;99543.56;7370814;19;20074;-59
2023/10/13 11:54:15;;;;;;;0.08;0.08;;;;;;;24.65;43.80;99541.16;7368235;19;20017;-60
2023/10/13 11:56:41;;;;;;;0.10;0.10;;;;;;;24.63;43.59;99543.13;7363217;19;20021;-59
2023/10/13 11:59:15;;;;;;;0.10;0.10;;;;;;;24.66;44.46;99537.47;7334074;19;20697;-59
2023/10/13 12:04:34;;;;;;;0.10;0.10;;;;;;;24.89;42.11;99553.84;7361607;19;20031;-59
2023/10/13 12:12:26;;;;;;;0.00;0.00;;;;;;;24.99;41.37;99552.78;7362620;19;20050;-59
2023/10/13 12:14:58;;;;;;;0.00;0.00;;;;;;;24.94;42.29;99544.41;7360526;19;20029;-58
2023/10/13 12:17:34;;;;;;;0.10;0.10;;;;;;;24.97;42.92;99546.75;7358530;19;20118;-59
2023/10/13 12:20:10;;;;;;;0.10;0.10;;;;;;;25.07;43.45;99552.88;7362041;19;20015;-59
2023/10/13 12:22:39;;;;;;;0.10;0.10;;;;;;;25.21;41.02;99547.97;7362810;19;20431;-59
2023/10/13 12:25:44;;;;;;;0.10;0.10;;;;;;;25.41;43.19;99538.75;7359360;19;20420;-59
2023/10/13 12:28:18;;;;;;;0.10;0.10;;;;;;;25.69;41.39;99551.91;7355834;19;20031;-58
2023/10/13 12:30:52;;;;;;;0.00;0.00;;;;;;;25.86;40.78;99529.63;7359690;19;20022;-59
2023/10/13 12:33:24;;;;;;;0.03;0.03;;;;;;;26.16;41.54;99535.41;7359753;19;20772;-59
2023/10/13 12:36:27;;;;;;;0.10;0.10;;;;;;;26.48;43.53;99542.69;7357169;19;20029;-59
2023/10/13 12:48:55;;;;;;;0.10;0.10;;;;;;;26.71;41.11;99543.69;7368269;19;20023;-59
2023/10/13 12:49:57;;;;;;;0.10;0.10;;;;;;;27.61;38.85;99552.50;7356319;19;20074;-60
2023/10/13 12:52:26;;;;;;;0.10;0.10;;;;;;;27.76;36.59;99554.50;7360031;19;20018;-59
2023/10/13 12:57:30;;;;;;;0.10;0.10;;;;;;;27.83;37.83;99536.66;7359618;19;20014;-59
2023/10/13 12:59:55;;;;;;;0.10;0.10;;;;;;;27.87;37.37;99562.16;7360916;19;20011;-59
2023/10/13 13:02:21;;;;;;;0.10;0.10;;;;;;;27.71;36.95;99540.75;7361714;19;20010;-59
2023/10/13 13:04:53;;;;;;;0.20;0.20;;;;;;;27.76;36.42;99560.69;7352886;19;20081;-59
2023/10/13 13:07:18;;;;;;;0.10;0.10;;;;;;;27.63;36.28;99569.25;7361030;19;20892;-59
2023/10/13 13:09:43;;;;;;;0.03;0.03;;;;;;;27.45;34.83;99576.66;7363204;19;20007;-59
2023/10/13 13:12:12;;;;;;;0.10;0.10;;;;;;;27.18;36.38;99587.78;7365778;19;20018;-58
2023/10/13 13:14:40;;;;;;;0.10;0.10;;;;;;;26.75;36.58;99571.00;7362724;19;20832;-59
2023/10/13 13:17:05;;;;;;;0.10;0.10;;;;;;;26.37;36.37;99575.94;7363139;19;20120;-59
2023/10/13 13:19:38;;;;;;;0.10;0.10;;;;;;;25.99;36.28;99585.34;7346884;19;20014;-59
2023/10/13 13:22:05;;;;;;;0.10;0.10;;;;;;;25.54;35.38;99595.25;7363676;19;20010;-58
2023/10/13 13:24:31;;;;;;;0.10;0.10;;;;;;;25.14;36.28;99584.28;7368597;19;20026;-59
2023/10/13 13:27:02;;;;;;;0.10;0.10;;;;;;;24.79;36.16;99591.34;7363387;19;20014;-59
2023/10/13 13:29:28;;;;;;;0.10;0.10;;;;;;;24.48;38.10;99594.38;7365680;19;20459;-59
2023/10/13 13:31:53;;;;;;;0.10;0.10;;;;;;;24.27;38.32;99591.09;7365173;19;20006;-59
2023/10/13 13:34:21;;;;;;;0.10;0.10;;;;;;;24.16;38.42;99599.31;7364910;19;20010;-59
2023/10/13 13:36:49;;;;;;;0.10;0.10;;;;;;;24.15;38.58;99595.81;7364570;19;20009;-59
2023/10/13 13:39:18;;;;;;;0.10;0.10;;;;;;;24.24;38.52;99592.25;7366106;19;20027;-59
2023/10/13 13:41:43;;;;;;;0.10;0.10;;;;;;;24.30;39.31;99582.81;7364875;19;20082;-59
2023/10/13 13:44:15;;;;;;;0.10;0.10;;;;;;;24.58;37.25;99597.81;7361912;19;20025;-58
2023/10/13 13:46:43;;;;;;;0.10;0.10;;;;;;;24.77;38.26;99593.31;7361130;19;20006;-59
2023/10/13 13:49:17;;;;;;;0.10;0.10;;;;;;;24.97;38.11;99594.81;7365775;19;20385;-59
2023/10/13 13:51:51;;;;;;;0.20;0.20;;;;;;;25.19;38.32;99598.88;7365729;19;20036;-59
2023/10/13 13:54:17;;;;;;;0.10;0.10;;;;;;;25.41;36.72;99594.88;7360038;19;20025;-59
2023/10/13 13:56:42;;;;;;;0.10;0.10;;;;;;;25.65;37.47;99604.00;7366076;19;20018;-58
2023/10/13 13:59:09;;;;;;;0.10;0.10;;;;;;;25.83;37.32;99616.34;7361182;19;20342;-59
2023/10/13 14:01:37;;;;;;;0.10;0.10;;;;;;;26.03;37.39;99616.97;7349705;19;20025;-59
2023/10/13 14:04:06;;;;;;;0.10;0.10;;;;;;;26.24;35.73;99615.69;7360324;19;20114;-59
2023/10/13 14:06:32;;;;;;;0.10;0.10;;;;;;;26.42;36.33;99613.78;7352175;19;20048;-59
2023/10/13 14:09:00;;;;;;;0.10;0.10;;;;;;;26.63;35.48;99611.50;7356406;19;20099;-59
2023/10/13 14:14:13;;;;;;;0.10;0.10;;;;;;;26.88;34.54;99593.59;7350348;19;20018;-59
2023/10/13 14:16:47;;;;;;;0.00;0.00;;;;;;;27.03;34.20;99611.69;7338770;19;20050;-59
2023/10/13 14:19:27;;;;;;;0.17;0.17;;;;;;;27.08;32.85;99615.59;7363716;19;20014;-59
2023/10/13 14:21:56;;;;;;;0.10;0.10;;;;;;;27.24;33.57;99628.16;7363132;19;20014;-59
2023/10/13 14:24:32;;;;;;;0.10;0.10;;;;;;;27.23;33.57;99622.97;7368287;19;20422;-59
2023/10/13 14:27:07;;;;;;;0.08;0.08;;;;;;;27.29;33.37;99633.84;7356060;19;20014;-59
2023/10/13 14:29:33;;;;;;;0.10;0.10;;;;;;;27.37;34.33;99638.34;7365194;19;20015;-59
2023/10/13 14:31:59;;;;;;;0.10;0.10;;;;;;;27.49;33.09;99634.31;7360106;19;20011;-59
2023/10/13 14:34:26;;;;;;;0.00;0.00;;;;;;;27.48;33.71;99626.47;7362725;19;20027;-59
2023/10/13 14:36:51;;;;;;;;;;;;;;;27.76;37.00;99641.16;7362403;19;19999;-59
2023/10/13 14:39:16;;;;;;;0.10;0.10;;;;;;;27.65;32.08;99649.53;7364020;19;20708;-59
2023/10/13 14:41:42;;;;;;;0.10;0.10;;;;;;;27.57;30.24;99653.06;7362162;19;20959;-59
2023/10/13 14:44:08;;;;;;;0.10;0.10;;;;;;;27.44;30.25;99658.13;7363694;19;20906;-59
2023/10/13 14:46:35;;;;;;;0.10;0.10;;;;;;;27.19;31.08;99651.09;7358901;19;20011;-59
2023/10/13 14:49:03;;;;;;;0.10;0.10;;;;;;;26.88;30.81;99665.09;7363989;19;20006;-59
2023/10/13 14:51:29;;;;;;;0.10;0.10;;;;;;;26.48;31.53;99658.66;7357412;19;20073;-59
2023/10/13 14:53:59;;;;;;;0.10;0.10;;;;;;;26.26;31.23;99672.59;7360944;19;20898;-59
2023/10/13 14:56:26;;;;;;;0.10;0.10;;;;;;;26.04;32.53;99669.47;7362301;19;20452;-59
2023/10/13 14:58:52;;;;;;;;;;;;;;;26.01;36.57;99675.16;7362210;19;20018;-59
2023/10/13 15:01:19;;;;;;;0.10;0.10;;;;;;;25.92;33.26;99681.44;7359483;19;19915;-59
2023/10/13 15:03:47;;;;;;;0.10;0.10;;;;;;;25.96;33.15;99682.81;7360240;19;20006;-59
2023/10/13 15:06:20;;;;;;;0.00;0.00;;;;;;;26.02;33.63;99687.53;7359070;19;20387;-59
2023/10/13 15:08:47;;;;;;;0.00;0.00;;;;;;;26.02;32.45;99686.69;7357781;19;20022;-59
2023/10/13 15:11:13;;;;;;;0.20;0.20;;;;;;;26.04;31.94;99696.22;7354121;19;20024;-59
2023/10/13 15:13:42;;;;;;;0.10;0.10;;;;;;;26.08;33.04;99680.69;7355279;19;20033;-59
2023/10/13 15:16:18;;;;;;;0.10;0.10;;;;;;;26.09;34.14;99680.53;7353559;19;20018;-59
2023/10/13 15:18:51;;;;;;;0.10;0.10;;;;;;;26.05;33.83;99671.13;7357995;19;20070;-59
2023/10/13 15:21:39;;;;;;;0.10;0.10;;;;;;;26.13;33.53;99694.44;7354175;19;20025;-59